sensor_id;sensor_type;location;lat;lon;timestamp;P1;durP1;ratioP1;P2;durP2;ratioP2
51588;SDS011;37671;53.258;6.460;2022-11-18T00:01:17;18.83;;;14.63;;
51588;SDS011;37671;53.258;6.460;2022-11-18T00:03:45;18.05;;;13.35;;
51588;SDS011;37671;53.258;6.460;2022-11-18T00:06:12;18.10;;;14.73;;
51588;SDS011;37671;53.258;6.460;2022-11-18T00:08:40;22.70;;;13.50;;
51588;SDS011;37671;53.258;6.460;2022-11-18T00:11:10;19.85;;;15.05;;
51588;SDS011;37671;53.258;6.460;2022-11-18T00:13:57;20.55;;;15.23;;
51588;SDS011;37671;53.258;6.460;2022-11-18T00:16:41;19.63;;;14.52;;
51588;SDS011;37671;53.258;6.460;2022-11-18T00:19:07;17.55;;;13.50;;
51588;SDS011;37671;53.258;6.460;2022-11-18T00:21:33;20.27;;;15.00;;
51588;SDS011;37671;53.258;6.460;2022-11-18T00:23:58;20.30;;;14.88;;
51588;SDS011;37671;53.258;6.460;2022-11-18T00:26:24;18.50;;;14.52;;
51588;SDS011;37671;53.258;6.460;2022-11-18T00:28:49;21.70;;;15.23;;
51588;SDS011;37671;53.258;6.460;2022-11-18T00:31:15;17.33;;;13.48;;
51588;SDS011;37671;53.258;6.460;2022-11-18T00:33:41;16.08;;;12.32;;
51588;SDS011;37671;53.258;6.460;2022-11-18T00:36:08;17.30;;;13.35;;
51588;SDS011;37671;53.258;6.460;2022-11-18T00:38:35;19.00;;;14.48;;
51588;SDS011;37671;53.258;6.460;2022-11-18T00:41:01;17.02;;;12.95;;
51588;SDS011;37671;53.258;6.460;2022-11-18T00:43:32;16.75;;;12.45;;
51588;SDS011;37671;53.258;6.460;2022-11-18T00:45:59;19.50;;;14.73;;
51588;SDS011;37671;53.258;6.460;2022-11-18T00:48:25;18.75;;;14.05;;
51588;SDS011;37671;53.258;6.460;2022-11-18T00:50:53;16.20;;;12.38;;
51588;SDS011;37671;53.258;6.460;2022-11-18T00:53:20;19.45;;;14.95;;
51588;SDS011;37671;53.258;6.460;2022-11-18T00:58:22;16.67;;;13.05;;
51588;SDS011;37671;53.258;6.460;2022-11-18T01:00:49;18.02;;;13.98;;
51588;SDS011;37671;53.258;6.460;2022-11-18T01:03:16;20.05;;;13.57;;
51588;SDS011;37671;53.258;6.460;2022-11-18T01:05:43;20.67;;;14.55;;
51588;SDS011;37671;53.258;6.460;2022-11-18T01:08:09;20.80;;;14.15;;
51588;SDS011;37671;53.258;6.460;2022-11-18T01:10:36;21.15;;;14.98;;
51588;SDS011;37671;53.258;6.460;2022-11-18T01:13:03;21.70;;;14.43;;
51588;SDS011;37671;53.258;6.460;2022-11-18T06:22:33;23.85;;;11.85;;
51588;SDS011;37671;53.258;6.460;2022-11-18T06:24:59;22.27;;;12.18;;
51588;SDS011;37671;53.258;6.460;2022-11-18T06:27:25;25.25;;;11.82;;
51588;SDS011;37671;53.258;6.460;2022-11-18T06:29:51;19.88;;;10.43;;
51588;SDS011;37671;53.258;6.460;2022-11-18T06:32:16;19.40;;;10.60;;
51588;SDS011;37671;53.258;6.460;2022-11-18T06:34:42;19.48;;;11.68;;
51588;SDS011;37671;53.258;6.460;2022-11-18T06:37:14;24.40;;;12.82;;
51588;SDS011;37671;53.258;6.460;2022-11-18T06:39:41;22.83;;;10.50;;
51588;SDS011;37671;53.258;6.460;2022-11-18T06:42:07;22.90;;;11.65;;
51588;SDS011;37671;53.258;6.460;2022-11-18T06:44:33;27.48;;;12.80;;
51588;SDS011;37671;53.258;6.460;2022-11-18T06:46:59;24.15;;;12.45;;
51588;SDS011;37671;53.258;6.460;2022-11-18T06:49:26;19.98;;;11.80;;
51588;SDS011;37671;53.258;6.460;2022-11-18T06:51:52;22.77;;;11.45;;
51588;SDS011;37671;53.258;6.460;2022-11-18T06:54:18;22.33;;;11.57;;
51588;SDS011;37671;53.258;6.460;2022-11-18T06:56:44;21.55;;;11.20;;
51588;SDS011;37671;53.258;6.460;2022-11-18T06:59:10;19.83;;;11.18;;
51588;SDS011;37671;53.258;6.460;2022-11-18T07:01:37;21.27;;;11.68;;
51588;SDS011;37671;53.258;6.460;2022-11-18T07:04:05;21.00;;;11.63;;
51588;SDS011;37671;53.258;6.460;2022-11-18T07:06:31;24.58;;;12.80;;
51588;SDS011;37671;53.258;6.460;2022-11-18T07:08:59;29.58;;;13.05;;
51588;SDS011;37671;53.258;6.460;2022-11-18T07:11:25;23.55;;;12.45;;
51588;SDS011;37671;53.258;6.460;2022-11-18T07:13:51;20.73;;;10.85;;
51588;SDS011;37671;53.258;6.460;2022-11-18T07:16:18;21.08;;;11.80;;
51588;SDS011;37671;53.258;6.460;2022-11-18T07:18:46;22.48;;;11.43;;
51588;SDS011;37671;53.258;6.460;2022-11-18T07:21:14;21.92;;;12.23;;
51588;SDS011;37671;53.258;6.460;2022-11-18T07:23:41;29.13;;;12.82;;
51588;SDS011;37671;53.258;6.460;2022-11-18T07:26:07;30.65;;;15.50;;
51588;SDS011;37671;53.258;6.460;2022-11-18T07:28:34;24.80;;;14.25;;
51588;SDS011;37671;53.258;6.460;2022-11-18T07:31:07;28.65;;;14.57;;
51588;SDS011;37671;53.258;6.460;2022-11-18T07:33:35;25.00;;;13.10;;
51588;SDS011;37671;53.258;6.460;2022-11-18T07:36:05;27.40;;;14.05;;
51588;SDS011;37671;53.258;6.460;2022-11-18T07:38:36;29.05;;;14.80;;
51588;SDS011;37671;53.258;6.460;2022-11-18T07:41:12;30.45;;;15.23;;
51588;SDS011;37671;53.258;6.460;2022-11-18T07:43:39;26.90;;;14.35;;
51588;SDS011;37671;53.258;6.460;2022-11-18T07:46:16;26.42;;;14.85;;
51588;SDS011;37671;53.258;6.460;2022-11-18T07:48:44;31.42;;;15.35;;
51588;SDS011;37671;53.258;6.460;2022-11-18T07:51:11;28.35;;;16.98;;
51588;SDS011;37671;53.258;6.460;2022-11-18T07:53:38;28.80;;;15.07;;
51588;SDS011;37671;53.258;6.460;2022-11-18T07:56:05;30.83;;;15.85;;
51588;SDS011;37671;53.258;6.460;2022-11-18T07:58:31;27.52;;;15.00;;
51588;SDS011;37671;53.258;6.460;2022-11-18T08:00:57;27.45;;;14.07;;
51588;SDS011;37671;53.258;6.460;2022-11-18T08:03:26;27.40;;;15.13;;
51588;SDS011;37671;53.258;6.460;2022-11-18T08:05:52;23.70;;;14.32;;
51588;SDS011;37671;53.258;6.460;2022-11-18T08:08:25;24.20;;;14.25;;
51588;SDS011;37671;53.258;6.460;2022-11-18T08:10:53;22.45;;;13.30;;
51588;SDS011;37671;53.258;6.460;2022-11-18T08:13:21;24.38;;;13.48;;
51588;SDS011;37671;53.258;6.460;2022-11-18T08:15:46;23.85;;;13.25;;
51588;SDS011;37671;53.258;6.460;2022-11-18T08:18:12;27.20;;;15.48;;
51588;SDS011;37671;53.258;6.460;2022-11-18T08:20:38;29.05;;;14.88;;
51588;SDS011;37671;53.258;6.460;2022-11-18T08:23:03;28.42;;;15.25;;
51588;SDS011;37671;53.258;6.460;2022-11-18T08:25:29;27.25;;;14.07;;
51588;SDS011;37671;53.258;6.460;2022-11-18T08:27:54;25.02;;;14.65;;
51588;SDS011;37671;53.258;6.460;2022-11-18T08:30:20;31.63;;;14.93;;
51588;SDS011;37671;53.258;6.460;2022-11-18T08:32:46;27.90;;;14.10;;
51588;SDS011;37671;53.258;6.460;2022-11-18T08:35:11;22.80;;;14.13;;
51588;SDS011;37671;53.258;6.460;2022-11-18T08:37:37;26.20;;;14.30;;
51588;SDS011;37671;53.258;6.460;2022-11-18T08:40:03;28.85;;;14.75;;
51588;SDS011;37671;53.258;6.460;2022-11-18T08:42:29;22.42;;;13.05;;
51588;SDS011;37671;53.258;6.460;2022-11-18T08:44:54;23.85;;;13.20;;
51588;SDS011;37671;53.258;6.460;2022-11-18T08:47:20;21.17;;;13.25;;
51588;SDS011;37671;53.258;6.460;2022-11-18T08:49:45;21.85;;;13.82;;
51588;SDS011;37671;53.258;6.460;2022-11-18T08:52:11;23.63;;;14.43;;
51588;SDS011;37671;53.258;6.460;2022-11-18T08:54:37;23.80;;;13.27;;
51588;SDS011;37671;53.258;6.460;2022-11-18T08:57:02;20.63;;;12.80;;
51588;SDS011;37671;53.258;6.460;2022-11-18T08:59:28;26.08;;;14.57;;
51588;SDS011;37671;53.258;6.460;2022-11-18T09:01:54;28.80;;;14.68;;
51588;SDS011;37671;53.258;6.460;2022-11-18T09:04:19;28.75;;;15.55;;
51588;SDS011;37671;53.258;6.460;2022-11-18T09:06:45;26.80;;;15.63;;
51588;SDS011;37671;53.258;6.460;2022-11-18T09:09:10;24.58;;;15.10;;
51588;SDS011;37671;53.258;6.460;2022-11-18T09:11:37;24.85;;;14.35;;
51588;SDS011;37671;53.258;6.460;2022-11-18T09:14:03;23.13;;;14.88;;
51588;SDS011;37671;53.258;6.460;2022-11-18T09:16:30;19.55;;;13.00;;
51588;SDS011;37671;53.258;6.460;2022-11-18T09:18:57;24.92;;;14.27;;
51588;SDS011;37671;53.258;6.460;2022-11-18T09:21:23;24.23;;;13.88;;
51588;SDS011;37671;53.258;6.460;2022-11-18T09:23:49;28.17;;;15.32;;
51588;SDS011;37671;53.258;6.460;2022-11-18T09:26:16;23.90;;;13.65;;
51588;SDS011;37671;53.258;6.460;2022-11-18T09:28:45;24.63;;;15.13;;
51588;SDS011;37671;53.258;6.460;2022-11-18T09:31:15;23.40;;;15.05;;
51588;SDS011;37671;53.258;6.460;2022-11-18T09:33:42;24.50;;;14.48;;
51588;SDS011;37671;53.258;6.460;2022-11-18T09:36:15;22.38;;;14.57;;
51588;SDS011;37671;53.258;6.460;2022-11-18T09:38:45;27.60;;;13.88;;
51588;SDS011;37671;53.258;6.460;2022-11-18T09:47:13;24.08;;;13.32;;
51588;SDS011;37671;53.258;6.460;2022-11-18T09:49:48;20.98;;;10.73;;
51588;SDS011;37671;53.258;6.460;2022-11-18T09:52:18;21.92;;;11.57;;
51588;SDS011;37671;53.258;6.460;2022-11-18T09:54:48;22.98;;;12.88;;
51588;SDS011;37671;53.258;6.460;2022-11-18T09:59:45;19.80;;;11.73;;
51588;SDS011;37671;53.258;6.460;2022-11-18T10:04:53;17.58;;;10.65;;
51588;SDS011;37671;53.258;6.460;2022-11-18T10:07:21;19.02;;;10.52;;
51588;SDS011;37671;53.258;6.460;2022-11-18T10:10:23;20.45;;;11.02;;
51588;SDS011;37671;53.258;6.460;2022-11-18T10:19:21;21.63;;;11.80;;
51588;SDS011;37671;53.258;6.460;2022-11-18T10:24:40;17.58;;;10.93;;
51588;SDS011;37671;53.258;6.460;2022-11-18T10:27:09;20.73;;;11.75;;
51588;SDS011;37671;53.258;6.460;2022-11-18T10:29:36;18.58;;;11.48;;
51588;SDS011;37671;53.258;6.460;2022-11-18T10:34:33;21.52;;;11.68;;
51588;SDS011;37671;53.258;6.460;2022-11-18T10:37:20;19.60;;;11.60;;
51588;SDS011;37671;53.258;6.460;2022-11-18T10:39:55;20.85;;;11.27;;
51588;SDS011;37671;53.258;6.460;2022-11-18T10:42:24;20.67;;;12.45;;
51588;SDS011;37671;53.258;6.460;2022-11-18T10:44:51;21.90;;;12.32;;
51588;SDS011;37671;53.258;6.460;2022-11-18T10:49:59;20.58;;;11.73;;
51588;SDS011;37671;53.258;6.460;2022-11-18T10:52:28;18.27;;;10.68;;
51588;SDS011;37671;53.258;6.460;2022-11-18T10:55:06;21.30;;;11.48;;
51588;SDS011;37671;53.258;6.460;2022-11-18T10:57:39;21.55;;;11.00;;
51588;SDS011;37671;53.258;6.460;2022-11-18T11:05:47;21.60;;;13.00;;
51588;SDS011;37671;53.258;6.460;2022-11-18T11:08:20;24.27;;;12.55;;
51588;SDS011;37671;53.258;6.460;2022-11-18T11:10:54;21.83;;;12.50;;
51588;SDS011;37671;53.258;6.460;2022-11-18T11:13:21;23.92;;;12.38;;
51588;SDS011;37671;53.258;6.460;2022-11-18T11:15:49;21.67;;;11.60;;
51588;SDS011;37671;53.258;6.460;2022-11-18T11:18:21;23.48;;;12.35;;
51588;SDS011;37671;53.258;6.460;2022-11-18T11:21:18;21.80;;;11.60;;
51588;SDS011;37671;53.258;6.460;2022-11-18T11:23:47;27.80;;;13.73;;
51588;SDS011;37671;53.258;6.460;2022-11-18T11:29:16;28.23;;;14.60;;
51588;SDS011;37671;53.258;6.460;2022-11-18T11:34:34;21.70;;;11.55;;
51588;SDS011;37671;53.258;6.460;2022-11-18T11:37:12;29.02;;;14.07;;
51588;SDS011;37671;53.258;6.460;2022-11-18T11:42:47;26.95;;;13.75;;
51588;SDS011;37671;53.258;6.460;2022-11-18T11:48:50;24.63;;;12.18;;
51588;SDS011;37671;53.258;6.460;2022-11-18T11:58:00;30.92;;;15.05;;
51588;SDS011;37671;53.258;6.460;2022-11-18T12:00:12;27.00;;;14.00;;
51588;SDS011;37671;53.258;6.460;2022-11-18T12:05:21;22.90;;;12.93;;
51588;SDS011;37671;53.258;6.460;2022-11-18T12:08:08;28.77;;;13.25;;
51588;SDS011;37671;53.258;6.460;2022-11-18T12:13:19;27.27;;;13.50;;
51588;SDS011;37671;53.258;6.460;2022-11-18T12:18:41;26.67;;;13.68;;
51588;SDS011;37671;53.258;6.460;2022-11-18T12:27:04;27.65;;;15.18;;
51588;SDS011;37671;53.258;6.460;2022-11-18T12:29:42;23.38;;;12.10;;
51588;SDS011;37671;53.258;6.460;2022-11-18T12:37:37;24.38;;;12.23;;
51588;SDS011;37671;53.258;6.460;2022-11-18T12:40:03;24.67;;;13.85;;
51588;SDS011;37671;53.258;6.460;2022-11-18T12:42:45;25.63;;;12.40;;
51588;SDS011;37671;53.258;6.460;2022-11-18T12:53:47;21.88;;;12.57;;
51588;SDS011;37671;53.258;6.460;2022-11-18T12:58:47;45.80;;;13.73;;
51588;SDS011;37671;53.258;6.460;2022-11-18T13:01:18;19.83;;;10.45;;
51588;SDS011;37671;53.258;6.460;2022-11-18T13:03:46;20.00;;;11.45;;
51588;SDS011;37671;53.258;6.460;2022-11-18T13:06:20;19.45;;;10.60;;
51588;SDS011;37671;53.258;6.460;2022-11-18T13:08:53;21.40;;;12.10;;
51588;SDS011;37671;53.258;6.460;2022-11-18T13:11:25;23.02;;;12.93;;
51588;SDS011;37671;53.258;6.460;2022-11-18T13:14:24;20.55;;;12.25;;
51588;SDS011;37671;53.258;6.460;2022-11-18T13:34:43;20.42;;;11.27;;
51588;SDS011;37671;53.258;6.460;2022-11-18T13:37:18;20.88;;;11.68;;
51588;SDS011;37671;53.258;6.460;2022-11-18T13:39:49;23.25;;;13.35;;
51588;SDS011;37671;53.258;6.460;2022-11-18T13:42:19;21.42;;;11.55;;
51588;SDS011;37671;53.258;6.460;2022-11-18T13:52:49;27.17;;;15.07;;
51588;SDS011;37671;53.258;6.460;2022-11-18T13:55:25;25.77;;;13.90;;
51588;SDS011;37671;53.258;6.460;2022-11-18T14:00:26;23.85;;;12.18;;
51588;SDS011;37671;53.258;6.460;2022-11-18T14:02:55;21.08;;;12.63;;
51588;SDS011;37671;53.258;6.460;2022-11-18T14:05:24;23.75;;;12.70;;
51588;SDS011;37671;53.258;6.460;2022-11-18T14:07:58;22.33;;;13.45;;
51588;SDS011;37671;53.258;6.460;2022-11-18T14:10:33;21.58;;;13.38;;
51588;SDS011;37671;53.258;6.460;2022-11-18T14:13:27;23.63;;;13.32;;
51588;SDS011;37671;53.258;6.460;2022-11-18T14:18:46;24.67;;;13.73;;
51588;SDS011;37671;53.258;6.460;2022-11-18T14:21:13;24.98;;;13.15;;
51588;SDS011;37671;53.258;6.460;2022-11-18T14:23:58;21.35;;;12.35;;
51588;SDS011;37671;53.258;6.460;2022-11-18T14:26:28;22.80;;;12.05;;
51588;SDS011;37671;53.258;6.460;2022-11-18T14:28:56;21.40;;;11.82;;
51588;SDS011;37671;53.258;6.460;2022-11-18T14:31:25;21.73;;;12.50;;
51588;SDS011;37671;53.258;6.460;2022-11-18T14:36:50;23.77;;;12.88;;
51588;SDS011;37671;53.258;6.460;2022-11-18T14:41:49;23.80;;;12.63;;
51588;SDS011;37671;53.258;6.460;2022-11-18T14:44:18;19.77;;;10.65;;
51588;SDS011;37671;53.258;6.460;2022-11-18T14:46:50;19.98;;;10.68;;
51588;SDS011;37671;53.258;6.460;2022-11-18T14:49:20;19.80;;;10.40;;
51588;SDS011;37671;53.258;6.460;2022-11-18T14:51:47;19.25;;;10.02;;
51588;SDS011;37671;53.258;6.460;2022-11-18T14:54:14;19.33;;;11.32;;
51588;SDS011;37671;53.258;6.460;2022-11-18T14:56:41;22.67;;;12.35;;
51588;SDS011;37671;53.258;6.460;2022-11-18T14:59:11;24.60;;;12.88;;
51588;SDS011;37671;53.258;6.460;2022-11-18T15:01:38;22.75;;;12.77;;
51588;SDS011;37671;53.258;6.460;2022-11-18T15:04:05;26.70;;;14.13;;
51588;SDS011;37671;53.258;6.460;2022-11-18T15:06:31;28.77;;;14.10;;
51588;SDS011;37671;53.258;6.460;2022-11-18T15:08:56;25.30;;;12.93;;
51588;SDS011;37671;53.258;6.460;2022-11-18T15:11:22;27.52;;;15.05;;
51588;SDS011;37671;53.258;6.460;2022-11-18T15:13:48;27.50;;;15.25;;
51588;SDS011;37671;53.258;6.460;2022-11-18T15:18:47;26.00;;;14.68;;
51588;SDS011;37671;53.258;6.460;2022-11-18T15:21:25;27.55;;;14.75;;
51588;SDS011;37671;53.258;6.460;2022-11-18T15:23:51;26.65;;;14.15;;
51588;SDS011;37671;53.258;6.460;2022-11-18T15:26:25;29.35;;;15.52;;
51588;SDS011;37671;53.258;6.460;2022-11-18T15:28:53;24.73;;;14.23;;
51588;SDS011;37671;53.258;6.460;2022-11-18T15:31:20;27.48;;;15.95;;
51588;SDS011;37671;53.258;6.460;2022-11-18T15:33:47;28.65;;;15.98;;
51588;SDS011;37671;53.258;6.460;2022-11-18T15:36:16;30.10;;;15.50;;
51588;SDS011;37671;53.258;6.460;2022-11-18T15:38:44;26.98;;;15.05;;
51588;SDS011;37671;53.258;6.460;2022-11-18T15:41:14;26.17;;;15.02;;
51588;SDS011;37671;53.258;6.460;2022-11-18T15:43:51;27.42;;;14.85;;
51588;SDS011;37671;53.258;6.460;2022-11-18T15:46:20;26.33;;;14.90;;
51588;SDS011;37671;53.258;6.460;2022-11-18T15:48:46;26.23;;;14.73;;
51588;SDS011;37671;53.258;6.460;2022-11-18T15:51:15;31.38;;;17.10;;
51588;SDS011;37671;53.258;6.460;2022-11-18T15:53:41;30.38;;;16.75;;
51588;SDS011;37671;53.258;6.460;2022-11-18T15:56:13;23.05;;;13.60;;
51588;SDS011;37671;53.258;6.460;2022-11-18T15:58:42;26.00;;;14.48;;
51588;SDS011;37671;53.258;6.460;2022-11-18T16:01:08;24.48;;;14.13;;
51588;SDS011;37671;53.258;6.460;2022-11-18T16:03:35;19.25;;;11.82;;
51588;SDS011;37671;53.258;6.460;2022-11-18T16:06:01;22.63;;;13.48;;
51588;SDS011;37671;53.258;6.460;2022-11-18T16:08:28;26.13;;;13.48;;
51588;SDS011;37671;53.258;6.460;2022-11-18T16:10:54;25.13;;;12.43;;
51588;SDS011;37671;53.258;6.460;2022-11-18T16:13:40;20.75;;;12.88;;
51588;SDS011;37671;53.258;6.460;2022-11-18T16:16:05;18.88;;;11.05;;
51588;SDS011;37671;53.258;6.460;2022-11-18T16:18:31;21.20;;;12.35;;
51588;SDS011;37671;53.258;6.460;2022-11-18T16:20:58;20.73;;;12.82;;
51588;SDS011;37671;53.258;6.460;2022-11-18T16:23:24;20.25;;;11.30;;
51588;SDS011;37671;53.258;6.460;2022-11-18T16:25:52;20.55;;;13.75;;
51588;SDS011;37671;53.258;6.460;2022-11-18T16:28:18;21.30;;;12.93;;
51588;SDS011;37671;53.258;6.460;2022-11-18T16:30:47;20.95;;;12.88;;
51588;SDS011;37671;53.258;6.460;2022-11-18T16:33:32;19.80;;;12.45;;
51588;SDS011;37671;53.258;6.460;2022-11-18T16:35:57;28.33;;;14.77;;
51588;SDS011;37671;53.258;6.460;2022-11-18T16:38:23;18.67;;;12.18;;
51588;SDS011;37671;53.258;6.460;2022-11-18T16:40:55;18.73;;;11.75;;
51588;SDS011;37671;53.258;6.460;2022-11-18T16:43:21;22.60;;;13.90;;
51588;SDS011;37671;53.258;6.460;2022-11-18T16:45:51;23.75;;;12.90;;
51588;SDS011;37671;53.258;6.460;2022-11-18T16:48:17;22.13;;;13.85;;
51588;SDS011;37671;53.258;6.460;2022-11-18T16:51:02;26.05;;;15.77;;
51588;SDS011;37671;53.258;6.460;2022-11-18T16:53:42;25.20;;;16.25;;
51588;SDS011;37671;53.258;6.460;2022-11-18T16:56:13;28.67;;;18.85;;
51588;SDS011;37671;53.258;6.460;2022-11-18T16:58:38;28.70;;;18.77;;
51588;SDS011;37671;53.258;6.460;2022-11-18T17:01:10;28.92;;;19.65;;
51588;SDS011;37671;53.258;6.460;2022-11-18T17:03:37;24.40;;;15.60;;
51588;SDS011;37671;53.258;6.460;2022-11-18T17:06:03;29.85;;;18.67;;
51588;SDS011;37671;53.258;6.460;2022-11-18T17:08:32;33.35;;;21.63;;
51588;SDS011;37671;53.258;6.460;2022-11-18T17:11:09;33.25;;;20.77;;
51588;SDS011;37671;53.258;6.460;2022-11-18T17:13:35;31.92;;;20.63;;
51588;SDS011;37671;53.258;6.460;2022-11-18T17:16:03;30.75;;;18.27;;
51588;SDS011;37671;53.258;6.460;2022-11-18T17:18:32;32.45;;;19.95;;
51588;SDS011;37671;53.258;6.460;2022-11-18T17:21:02;33.40;;;21.00;;
51588;SDS011;37671;53.258;6.460;2022-11-18T17:23:29;31.27;;;19.30;;
51588;SDS011;37671;53.258;6.460;2022-11-18T17:25:54;34.20;;;21.15;;
51588;SDS011;37671;53.258;6.460;2022-11-18T17:28:20;32.17;;;19.17;;
51588;SDS011;37671;53.258;6.460;2022-11-18T17:30:45;31.50;;;20.92;;
51588;SDS011;37671;53.258;6.460;2022-11-18T17:33:12;34.08;;;21.80;;
51588;SDS011;37671;53.258;6.460;2022-11-18T17:35:38;30.73;;;19.77;;
51588;SDS011;37671;53.258;6.460;2022-11-18T17:38:04;33.38;;;21.02;;
51588;SDS011;37671;53.258;6.460;2022-11-18T17:40:29;31.27;;;20.13;;
51588;SDS011;37671;53.258;6.460;2022-11-18T17:42:55;29.35;;;18.85;;
51588;SDS011;37671;53.258;6.460;2022-11-18T17:45:21;25.70;;;16.58;;
51588;SDS011;37671;53.258;6.460;2022-11-18T17:47:47;27.95;;;17.73;;
51588;SDS011;37671;53.258;6.460;2022-11-18T17:50:12;29.50;;;19.25;;
51588;SDS011;37671;53.258;6.460;2022-11-18T17:52:38;26.35;;;16.95;;
51588;SDS011;37671;53.258;6.460;2022-11-18T17:55:04;29.55;;;18.25;;
51588;SDS011;37671;53.258;6.460;2022-11-18T17:57:30;28.35;;;17.75;;
51588;SDS011;37671;53.258;6.460;2022-11-18T17:59:56;27.08;;;17.48;;
51588;SDS011;37671;53.258;6.460;2022-11-18T18:02:22;27.70;;;17.63;;
51588;SDS011;37671;53.258;6.460;2022-11-18T18:04:48;31.40;;;18.92;;
51588;SDS011;37671;53.258;6.460;2022-11-18T18:07:13;30.25;;;17.52;;
51588;SDS011;37671;53.258;6.460;2022-11-18T18:09:39;28.85;;;17.38;;
51588;SDS011;37671;53.258;6.460;2022-11-18T18:12:05;23.77;;;15.32;;
51588;SDS011;37671;53.258;6.460;2022-11-18T18:14:51;29.75;;;18.92;;
51588;SDS011;37671;53.258;6.460;2022-11-18T18:17:16;30.75;;;19.13;;
51588;SDS011;37671;53.258;6.460;2022-11-18T18:19:42;31.98;;;19.38;;
51588;SDS011;37671;53.258;6.460;2022-11-18T18:22:11;28.98;;;18.55;;
51588;SDS011;37671;53.258;6.460;2022-11-18T18:24:36;28.10;;;17.98;;
51588;SDS011;37671;53.258;6.460;2022-11-18T18:27:02;32.65;;;21.23;;
51588;SDS011;37671;53.258;6.460;2022-11-18T18:29:31;35.72;;;21.60;;
51588;SDS011;37671;53.258;6.460;2022-11-18T18:31:56;32.80;;;19.13;;
51588;SDS011;37671;53.258;6.460;2022-11-18T18:34:23;35.72;;;22.10;;
51588;SDS011;37671;53.258;6.460;2022-11-18T18:36:49;33.70;;;20.90;;
51588;SDS011;37671;53.258;6.460;2022-11-18T18:39:17;35.17;;;21.27;;
51588;SDS011;37671;53.258;6.460;2022-11-18T18:41:43;33.05;;;19.10;;
51588;SDS011;37671;53.258;6.460;2022-11-18T18:44:09;37.78;;;23.13;;
51588;SDS011;37671;53.258;6.460;2022-11-18T18:46:34;36.78;;;22.38;;
51588;SDS011;37671;53.258;6.460;2022-11-18T18:49:05;37.97;;;22.88;;
51588;SDS011;37671;53.258;6.460;2022-11-18T18:51:34;37.83;;;21.60;;
51588;SDS011;37671;53.258;6.460;2022-11-18T18:54:05;35.67;;;22.33;;
51588;SDS011;37671;53.258;6.460;2022-11-18T18:56:33;34.25;;;21.00;;
51588;SDS011;37671;53.258;6.460;2022-11-18T18:59:02;38.05;;;20.88;;
51588;SDS011;37671;53.258;6.460;2022-11-18T19:01:28;35.83;;;22.42;;
51588;SDS011;37671;53.258;6.460;2022-11-18T19:03:55;34.40;;;21.73;;
51588;SDS011;37671;53.258;6.460;2022-11-18T19:09:19;31.60;;;18.98;;
51588;SDS011;37671;53.258;6.460;2022-11-18T19:11:45;30.48;;;19.75;;
51588;SDS011;37671;53.258;6.460;2022-11-18T19:14:31;31.33;;;20.15;;
51588;SDS011;37671;53.258;6.460;2022-11-18T19:16:58;30.70;;;19.40;;
51588;SDS011;37671;53.258;6.460;2022-11-18T19:19:25;30.77;;;19.65;;
51588;SDS011;37671;53.258;6.460;2022-11-18T19:22:11;28.05;;;18.20;;
51588;SDS011;37671;53.258;6.460;2022-11-18T19:24:38;24.15;;;15.75;;
51588;SDS011;37671;53.258;6.460;2022-11-18T19:27:04;22.80;;;15.02;;
51588;SDS011;37671;53.258;6.460;2022-11-18T19:29:30;25.67;;;15.90;;
51588;SDS011;37671;53.258;6.460;2022-11-18T19:31:56;26.50;;;17.02;;
51588;SDS011;37671;53.258;6.460;2022-11-18T19:34:21;24.33;;;16.38;;
51588;SDS011;37671;53.258;6.460;2022-11-18T19:36:47;23.52;;;14.98;;
51588;SDS011;37671;53.258;6.460;2022-11-18T19:39:13;21.90;;;13.27;;
51588;SDS011;37671;53.258;6.460;2022-11-18T19:41:38;22.70;;;13.55;;
51588;SDS011;37671;53.258;6.460;2022-11-18T19:44:04;19.40;;;13.15;;
51588;SDS011;37671;53.258;6.460;2022-11-18T19:46:30;21.13;;;12.93;;
51588;SDS011;37671;53.258;6.460;2022-11-18T19:48:56;19.58;;;11.82;;
51588;SDS011;37671;53.258;6.460;2022-11-18T19:51:22;18.38;;;12.25;;
51588;SDS011;37671;53.258;6.460;2022-11-18T19:53:48;17.88;;;11.52;;
51588;SDS011;37671;53.258;6.460;2022-11-18T19:56:15;18.02;;;11.65;;
51588;SDS011;37671;53.258;6.460;2022-11-18T19:58:43;16.08;;;10.70;;
51588;SDS011;37671;53.258;6.460;2022-11-18T20:01:15;15.55;;;10.02;;
51588;SDS011;37671;53.258;6.460;2022-11-18T20:03:50;16.65;;;10.02;;
51588;SDS011;37671;53.258;6.460;2022-11-18T20:06:18;14.80;;;9.90;;
51588;SDS011;37671;53.258;6.460;2022-11-18T20:08:46;14.98;;;9.18;;
51588;SDS011;37671;53.258;6.460;2022-11-18T20:11:13;13.50;;;8.18;;
51588;SDS011;37671;53.258;6.460;2022-11-18T20:13:40;17.33;;;8.60;;
51588;SDS011;37671;53.258;6.460;2022-11-18T20:16:08;12.45;;;7.93;;
51588;SDS011;37671;53.258;6.460;2022-11-18T20:18:40;13.77;;;8.25;;
51588;SDS011;37671;53.258;6.460;2022-11-18T20:21:08;13.43;;;9.02;;
51588;SDS011;37671;53.258;6.460;2022-11-18T20:23:36;12.45;;;8.52;;
51588;SDS011;37671;53.258;6.460;2022-11-18T20:26:06;13.73;;;8.73;;
51588;SDS011;37671;53.258;6.460;2022-11-18T20:28:37;12.23;;;8.10;;
51588;SDS011;37671;53.258;6.460;2022-11-18T20:31:04;10.65;;;7.90;;
51588;SDS011;37671;53.258;6.460;2022-11-18T20:33:38;11.52;;;7.10;;
51588;SDS011;37671;53.258;6.460;2022-11-18T20:38:37;10.13;;;6.82;;
51588;SDS011;37671;53.258;6.460;2022-11-18T20:41:05;10.13;;;6.72;;
51588;SDS011;37671;53.258;6.460;2022-11-18T20:43:32;9.82;;;6.68;;
51588;SDS011;37671;53.258;6.460;2022-11-18T20:46:00;10.65;;;6.80;;
51588;SDS011;37671;53.258;6.460;2022-11-18T20:48:27;10.70;;;6.57;;
51588;SDS011;37671;53.258;6.460;2022-11-18T20:50:55;11.07;;;6.55;;
51588;SDS011;37671;53.258;6.460;2022-11-18T20:53:20;11.77;;;6.50;;
51588;SDS011;37671;53.258;6.460;2022-11-18T20:55:49;8.82;;;5.75;;
51588;SDS011;37671;53.258;6.460;2022-11-18T20:58:15;8.25;;;5.28;;
51588;SDS011;37671;53.258;6.460;2022-11-18T21:00:42;8.43;;;5.25;;
51588;SDS011;37671;53.258;6.460;2022-11-18T21:03:09;7.93;;;5.03;;
51588;SDS011;37671;53.258;6.460;2022-11-18T21:05:36;8.55;;;5.18;;
51588;SDS011;37671;53.258;6.460;2022-11-18T21:08:07;7.25;;;4.50;;
51588;SDS011;37671;53.258;6.460;2022-11-18T21:10:34;7.80;;;4.22;;
51588;SDS011;37671;53.258;6.460;2022-11-18T21:13:01;24.45;;;8.82;;
51588;SDS011;37671;53.258;6.460;2022-11-18T21:15:46;6.40;;;4.30;;
51588;SDS011;37671;53.258;6.460;2022-11-18T21:18:12;6.78;;;4.07;;
51588;SDS011;37671;53.258;6.460;2022-11-18T21:20:37;6.78;;;4.03;;
51588;SDS011;37671;53.258;6.460;2022-11-18T21:23:21;8.77;;;4.35;;
51588;SDS011;37671;53.258;6.460;2022-11-18T21:25:47;6.45;;;3.83;;
51588;SDS011;37671;53.258;6.460;2022-11-18T21:28:13;7.45;;;4.20;;
51588;SDS011;37671;53.258;6.460;2022-11-18T21:30:38;7.22;;;4.35;;
51588;SDS011;37671;53.258;6.460;2022-11-18T21:33:04;7.43;;;4.60;;
51588;SDS011;37671;53.258;6.460;2022-11-18T21:35:31;7.88;;;4.55;;
51588;SDS011;37671;53.258;6.460;2022-11-18T21:37:58;7.38;;;4.13;;
51588;SDS011;37671;53.258;6.460;2022-11-18T21:40:27;7.00;;;3.85;;
51588;SDS011;37671;53.258;6.460;2022-11-18T21:42:53;6.45;;;3.85;;
51588;SDS011;37671;53.258;6.460;2022-11-18T21:45:18;6.60;;;3.72;;
51588;SDS011;37671;53.258;6.460;2022-11-18T21:47:44;6.25;;;4.10;;